sensor_id;sensor_type;location;lat;lon;timestamp;P1;durP1;ratioP1;P2;durP2;ratioP2
66751;SDS011;53663;42.676;23.238;2024-01-06T00:01:29;13.57;;;6.53;;
66751;SDS011;53663;42.676;23.238;2024-01-06T00:03:54;12.55;;;6.32;;
66751;SDS011;53663;42.676;23.238;2024-01-06T00:06:20;13.38;;;6.07;;
66751;SDS011;53663;42.676;23.238;2024-01-06T00:08:46;17.52;;;7.05;;
66751;SDS011;53663;42.676;23.238;2024-01-06T00:11:16;12.65;;;6.90;;
66751;SDS011;53663;42.676;23.238;2024-01-06T00:13:42;15.05;;;6.40;;
66751;SDS011;53663;42.676;23.238;2024-01-06T00:16:07;8.90;;;5.05;;
66751;SDS011;53663;42.676;23.238;2024-01-06T00:18:33;10.77;;;5.05;;
66751;SDS011;53663;42.676;23.238;2024-01-06T00:20:58;10.45;;;4.78;;
66751;SDS011;53663;42.676;23.238;2024-01-06T00:23:24;10.13;;;5.28;;
66751;SDS011;53663;42.676;23.238;2024-01-06T00:25:49;12.90;;;5.20;;
66751;SDS011;53663;42.676;23.238;2024-01-06T00:28:15;9.82;;;5.30;;
66751;SDS011;53663;42.676;23.238;2024-01-06T00:30:40;11.25;;;4.95;;
66751;SDS011;53663;42.676;23.238;2024-01-06T00:33:06;10.23;;;5.75;;
66751;SDS011;53663;42.676;23.238;2024-01-06T00:35:31;23.77;;;9.27;;
66751;SDS011;53663;42.676;23.238;2024-01-06T00:37:57;22.02;;;10.52;;
66751;SDS011;53663;42.676;23.238;2024-01-06T00:40:22;25.95;;;11.55;;
66751;SDS011;53663;42.676;23.238;2024-01-06T00:42:48;25.05;;;10.85;;
66751;SDS011;53663;42.676;23.238;2024-01-06T00:45:13;20.05;;;11.25;;
66751;SDS011;53663;42.676;23.238;2024-01-06T00:47:39;31.85;;;11.32;;
66751;SDS011;53663;42.676;23.238;2024-01-06T00:50:05;25.45;;;11.30;;
66751;SDS011;53663;42.676;23.238;2024-01-06T00:52:30;19.85;;;10.25;;
66751;SDS011;53663;42.676;23.238;2024-01-06T00:54:56;17.10;;;8.00;;
66751;SDS011;53663;42.676;23.238;2024-01-06T00:57:21;13.25;;;7.25;;
66751;SDS011;53663;42.676;23.238;2024-01-06T00:59:49;15.73;;;6.70;;
66751;SDS011;53663;42.676;23.238;2024-01-06T01:02:15;14.32;;;7.38;;
66751;SDS011;53663;42.676;23.238;2024-01-06T01:04:41;18.98;;;7.55;;
66751;SDS011;53663;42.676;23.238;2024-01-06T01:07:06;15.70;;;7.70;;
66751;SDS011;53663;42.676;23.238;2024-01-06T01:09:32;23.30;;;10.88;;
66751;SDS011;53663;42.676;23.238;2024-01-06T01:11:57;27.00;;;12.23;;
66751;SDS011;53663;42.676;23.238;2024-01-06T01:14:23;21.92;;;10.02;;
66751;SDS011;53663;42.676;23.238;2024-01-06T01:16:49;11.68;;;6.18;;
66751;SDS011;53663;42.676;23.238;2024-01-06T01:19:14;14.05;;;5.47;;
66751;SDS011;53663;42.676;23.238;2024-01-06T01:21:40;10.88;;;5.20;;
66751;SDS011;53663;42.676;23.238;2024-01-06T01:24:05;12.82;;;6.72;;
66751;SDS011;53663;42.676;23.238;2024-01-06T01:26:31;14.85;;;5.78;;
66751;SDS011;53663;42.676;23.238;2024-01-06T01:28:56;16.40;;;6.20;;
66751;SDS011;53663;42.676;23.238;2024-01-06T01:31:22;14.90;;;7.68;;
66751;SDS011;53663;42.676;23.238;2024-01-06T01:33:47;15.73;;;6.40;;
66751;SDS011;53663;42.676;23.238;2024-01-06T01:36:13;18.98;;;7.72;;
66751;SDS011;53663;42.676;23.238;2024-01-06T01:38:38;19.90;;;8.00;;
66751;SDS011;53663;42.676;23.238;2024-01-06T01:41:04;16.50;;;7.65;;
66751;SDS011;53663;42.676;23.238;2024-01-06T01:43:29;25.10;;;8.63;;
66751;SDS011;53663;42.676;23.238;2024-01-06T01:45:55;17.85;;;7.45;;
66751;SDS011;53663;42.676;23.238;2024-01-06T01:48:21;18.80;;;7.95;;
66751;SDS011;53663;42.676;23.238;2024-01-06T01:50:48;22.75;;;7.75;;
66751;SDS011;53663;42.676;23.238;2024-01-06T01:53:15;19.20;;;7.95;;
66751;SDS011;53663;42.676;23.238;2024-01-06T01:55:41;14.02;;;7.07;;
66751;SDS011;53663;42.676;23.238;2024-01-06T01:58:07;14.85;;;6.25;;
66751;SDS011;53663;42.676;23.238;2024-01-06T02:00:34;13.85;;;6.55;;
66751;SDS011;53663;42.676;23.238;2024-01-06T02:02:59;18.55;;;7.25;;
66751;SDS011;53663;42.676;23.238;2024-01-06T02:05:29;12.48;;;6.05;;
66751;SDS011;53663;42.676;23.238;2024-01-06T02:07:55;15.05;;;6.60;;
66751;SDS011;53663;42.676;23.238;2024-01-06T02:10:21;13.57;;;6.15;;
66751;SDS011;53663;42.676;23.238;2024-01-06T02:12:47;14.43;;;6.53;;
66751;SDS011;53663;42.676;23.238;2024-01-06T02:15:13;11.57;;;6.07;;
66751;SDS011;53663;42.676;23.238;2024-01-06T02:17:39;15.30;;;6.72;;
66751;SDS011;53663;42.676;23.238;2024-01-06T02:20:05;15.55;;;7.05;;
66751;SDS011;53663;42.676;23.238;2024-01-06T02:22:33;11.23;;;5.80;;
66751;SDS011;53663;42.676;23.238;2024-01-06T02:25:00;11.18;;;5.10;;
66751;SDS011;53663;42.676;23.238;2024-01-06T02:27:27;8.82;;;5.28;;
66751;SDS011;53663;42.676;23.238;2024-01-06T02:29:52;12.70;;;5.38;;
66751;SDS011;53663;42.676;23.238;2024-01-06T02:32:18;10.82;;;4.85;;
66751;SDS011;53663;42.676;23.238;2024-01-06T02:34:43;10.80;;;6.00;;
66751;SDS011;53663;42.676;23.238;2024-01-06T02:37:09;15.88;;;7.15;;
66751;SDS011;53663;42.676;23.238;2024-01-06T02:39:34;16.75;;;6.75;;
66751;SDS011;53663;42.676;23.238;2024-01-06T02:42:00;12.35;;;5.75;;
66751;SDS011;53663;42.676;23.238;2024-01-06T02:44:25;11.50;;;4.88;;
66751;SDS011;53663;42.676;23.238;2024-01-06T02:46:51;10.70;;;4.80;;
66751;SDS011;53663;42.676;23.238;2024-01-06T02:49:17;10.75;;;5.15;;
66751;SDS011;53663;42.676;23.238;2024-01-06T02:51:42;10.75;;;4.85;;
66751;SDS011;53663;42.676;23.238;2024-01-06T02:54:08;16.00;;;6.57;;
66751;SDS011;53663;42.676;23.238;2024-01-06T02:56:33;17.00;;;6.95;;
66751;SDS011;53663;42.676;23.238;2024-01-06T02:58:59;19.58;;;7.03;;
66751;SDS011;53663;42.676;23.238;2024-01-06T03:01:24;10.82;;;4.95;;
66751;SDS011;53663;42.676;23.238;2024-01-06T03:03:50;14.50;;;5.35;;
66751;SDS011;53663;42.676;23.238;2024-01-06T03:06:15;10.40;;;4.90;;
66751;SDS011;53663;42.676;23.238;2024-01-06T03:08:41;9.82;;;5.18;;
66751;SDS011;53663;42.676;23.238;2024-01-06T03:11:06;9.40;;;5.32;;
66751;SDS011;53663;42.676;23.238;2024-01-06T03:13:32;11.48;;;5.43;;
66751;SDS011;53663;42.676;23.238;2024-01-06T03:15:57;13.75;;;6.25;;
66751;SDS011;53663;42.676;23.238;2024-01-06T03:18:28;13.98;;;5.97;;
66751;SDS011;53663;42.676;23.238;2024-01-06T03:20:54;15.02;;;6.63;;
66751;SDS011;53663;42.676;23.238;2024-01-06T03:23:19;13.38;;;5.85;;
66751;SDS011;53663;42.676;23.238;2024-01-06T03:25:45;12.05;;;6.65;;
66751;SDS011;53663;42.676;23.238;2024-01-06T03:28:10;15.25;;;6.53;;
66751;SDS011;53663;42.676;23.238;2024-01-06T03:30:36;25.35;;;6.22;;
66751;SDS011;53663;42.676;23.238;2024-01-06T03:33:01;13.90;;;5.80;;
66751;SDS011;53663;42.676;23.238;2024-01-06T03:35:27;15.75;;;6.90;;
66751;SDS011;53663;42.676;23.238;2024-01-06T03:37:52;17.13;;;7.00;;
66751;SDS011;53663;42.676;23.238;2024-01-06T03:40:18;14.13;;;6.97;;
66751;SDS011;53663;42.676;23.238;2024-01-06T03:42:43;8.68;;;4.22;;
66751;SDS011;53663;42.676;23.238;2024-01-06T03:45:09;11.02;;;4.85;;
66751;SDS011;53663;42.676;23.238;2024-01-06T03:47:34;13.25;;;6.20;;
66751;SDS011;53663;42.676;23.238;2024-01-06T03:50:00;15.07;;;8.15;;
66751;SDS011;53663;42.676;23.238;2024-01-06T03:52:26;17.80;;;7.70;;
66751;SDS011;53663;42.676;23.238;2024-01-06T03:54:51;22.20;;;9.07;;
66751;SDS011;53663;42.676;23.238;2024-01-06T03:57:17;21.33;;;11.60;;
66751;SDS011;53663;42.676;23.238;2024-01-06T03:59:42;24.27;;;9.88;;
66751;SDS011;53663;42.676;23.238;2024-01-06T04:02:08;17.83;;;9.57;;
66751;SDS011;53663;42.676;23.238;2024-01-06T04:04:33;19.77;;;9.45;;
66751;SDS011;53663;42.676;23.238;2024-01-06T04:06:59;28.52;;;11.50;;
66751;SDS011;53663;42.676;23.238;2024-01-06T04:09:26;20.10;;;9.93;;
66751;SDS011;53663;42.676;23.238;2024-01-06T04:11:52;16.83;;;8.77;;
66751;SDS011;53663;42.676;23.238;2024-01-06T04:14:17;19.60;;;8.77;;
66751;SDS011;53663;42.676;23.238;2024-01-06T04:16:43;22.88;;;8.95;;
66751;SDS011;53663;42.676;23.238;2024-01-06T04:19:08;18.75;;;8.02;;
66751;SDS011;53663;42.676;23.238;2024-01-06T04:21:36;15.73;;;8.70;;
66751;SDS011;53663;42.676;23.238;2024-01-06T04:24:01;18.85;;;7.72;;
66751;SDS011;53663;42.676;23.238;2024-01-06T04:26:27;14.40;;;7.10;;
66751;SDS011;53663;42.676;23.238;2024-01-06T04:28:52;12.77;;;6.63;;
66751;SDS011;53663;42.676;23.238;2024-01-06T04:31:18;15.80;;;7.10;;
66751;SDS011;53663;42.676;23.238;2024-01-06T04:33:43;13.48;;;6.88;;
66751;SDS011;53663;42.676;23.238;2024-01-06T04:36:09;13.32;;;6.75;;
66751;SDS011;53663;42.676;23.238;2024-01-06T04:38:35;14.75;;;6.35;;
66751;SDS011;53663;42.676;23.238;2024-01-06T04:41:00;11.68;;;6.40;;
66751;SDS011;53663;42.676;23.238;2024-01-06T04:43:26;14.43;;;5.63;;
66751;SDS011;53663;42.676;23.238;2024-01-06T04:45:51;10.75;;;5.78;;
66751;SDS011;53663;42.676;23.238;2024-01-06T04:48:17;11.38;;;5.50;;
66751;SDS011;53663;42.676;23.238;2024-01-06T04:50:42;12.18;;;5.22;;
66751;SDS011;53663;42.676;23.238;2024-01-06T04:53:08;10.98;;;5.35;;
66751;SDS011;53663;42.676;23.238;2024-01-06T04:55:33;12.30;;;5.15;;
66751;SDS011;53663;42.676;23.238;2024-01-06T04:57:59;17.25;;;5.35;;
66751;SDS011;53663;42.676;23.238;2024-01-06T05:00:24;17.10;;;5.50;;
66751;SDS011;53663;42.676;23.238;2024-01-06T05:02:51;14.93;;;5.75;;
66751;SDS011;53663;42.676;23.238;2024-01-06T05:05:16;18.40;;;6.45;;
66751;SDS011;53663;42.676;23.238;2024-01-06T05:07:42;12.20;;;6.35;;
66751;SDS011;53663;42.676;23.238;2024-01-06T05:10:07;19.40;;;5.55;;
66751;SDS011;53663;42.676;23.238;2024-01-06T05:12:33;13.27;;;6.35;;
66751;SDS011;53663;42.676;23.238;2024-01-06T05:14:59;12.98;;;6.38;;
66751;SDS011;53663;42.676;23.238;2024-01-06T05:17:24;15.55;;;6.43;;
66751;SDS011;53663;42.676;23.238;2024-01-06T05:19:50;18.65;;;7.30;;
66751;SDS011;53663;42.676;23.238;2024-01-06T05:22:16;13.60;;;6.78;;
66751;SDS011;53663;42.676;23.238;2024-01-06T05:24:41;11.95;;;6.50;;
66751;SDS011;53663;42.676;23.238;2024-01-06T05:27:07;14.00;;;6.72;;
66751;SDS011;53663;42.676;23.238;2024-01-06T05:29:32;17.75;;;9.27;;
66751;SDS011;53663;42.676;23.238;2024-01-06T05:31:58;18.35;;;9.25;;
66751;SDS011;53663;42.676;23.238;2024-01-06T05:34:23;17.83;;;7.45;;
66751;SDS011;53663;42.676;23.238;2024-01-06T05:36:49;13.63;;;7.10;;
66751;SDS011;53663;42.676;23.238;2024-01-06T05:39:14;12.30;;;6.55;;
66751;SDS011;53663;42.676;23.238;2024-01-06T05:41:40;13.10;;;7.18;;
66751;SDS011;53663;42.676;23.238;2024-01-06T05:44:06;13.02;;;6.57;;
66751;SDS011;53663;42.676;23.238;2024-01-06T05:46:32;15.82;;;6.55;;
66751;SDS011;53663;42.676;23.238;2024-01-06T05:48:58;15.88;;;7.05;;
66751;SDS011;53663;42.676;23.238;2024-01-06T05:51:25;14.35;;;7.28;;
66751;SDS011;53663;42.676;23.238;2024-01-06T05:53:50;14.80;;;7.78;;
66751;SDS011;53663;42.676;23.238;2024-01-06T05:56:23;17.38;;;6.75;;
66751;SDS011;53663;42.676;23.238;2024-01-06T05:58:50;14.63;;;7.32;;
66751;SDS011;53663;42.676;23.238;2024-01-06T06:01:15;16.05;;;6.82;;
66751;SDS011;53663;42.676;23.238;2024-01-06T06:03:41;12.55;;;6.88;;
66751;SDS011;53663;42.676;23.238;2024-01-06T06:06:08;11.93;;;7.00;;
66751;SDS011;53663;42.676;23.238;2024-01-06T06:08:33;17.60;;;6.97;;
66751;SDS011;53663;42.676;23.238;2024-01-06T06:10:59;25.17;;;8.43;;
66751;SDS011;53663;42.676;23.238;2024-01-06T06:13:29;17.58;;;7.82;;
66751;SDS011;53663;42.676;23.238;2024-01-06T06:15:55;17.90;;;7.55;;
66751;SDS011;53663;42.676;23.238;2024-01-06T06:18:21;14.45;;;7.30;;
66751;SDS011;53663;42.676;23.238;2024-01-06T06:20:46;17.05;;;8.40;;
66751;SDS011;53663;42.676;23.238;2024-01-06T06:23:12;16.40;;;8.30;;
66751;SDS011;53663;42.676;23.238;2024-01-06T06:25:38;17.50;;;7.47;;
66751;SDS011;53663;42.676;23.238;2024-01-06T06:28:04;19.77;;;7.75;;
66751;SDS011;53663;42.676;23.238;2024-01-06T06:30:30;17.08;;;7.68;;
66751;SDS011;53663;42.676;23.238;2024-01-06T06:32:55;14.85;;;7.93;;
66751;SDS011;53663;42.676;23.238;2024-01-06T06:35:22;13.40;;;7.28;;
66751;SDS011;53663;42.676;23.238;2024-01-06T06:37:48;18.42;;;8.40;;
66751;SDS011;53663;42.676;23.238;2024-01-06T06:40:14;20.08;;;9.07;;
66751;SDS011;53663;42.676;23.238;2024-01-06T06:42:40;13.82;;;7.82;;
66751;SDS011;53663;42.676;23.238;2024-01-06T06:45:06;18.23;;;7.25;;
66751;SDS011;53663;42.676;23.238;2024-01-06T06:47:31;17.92;;;7.38;;
66751;SDS011;53663;42.676;23.238;2024-01-06T06:49:57;15.98;;;7.63;;
66751;SDS011;53663;42.676;23.238;2024-01-06T06:52:22;19.50;;;8.65;;
66751;SDS011;53663;42.676;23.238;2024-01-06T06:54:48;20.17;;;8.85;;
66751;SDS011;53663;42.676;23.238;2024-01-06T06:57:14;21.90;;;9.35;;
66751;SDS011;53663;42.676;23.238;2024-01-06T06:59:40;20.80;;;9.85;;
66751;SDS011;53663;42.676;23.238;2024-01-06T07:02:06;25.65;;;9.95;;
66751;SDS011;53663;42.676;23.238;2024-01-06T07:04:32;25.35;;;11.23;;
66751;SDS011;53663;42.676;23.238;2024-01-06T07:06:57;27.67;;;13.73;;
66751;SDS011;53663;42.676;23.238;2024-01-06T07:09:23;29.77;;;13.00;;
66751;SDS011;53663;42.676;23.238;2024-01-06T07:11:49;34.72;;;15.88;;
66751;SDS011;53663;42.676;23.238;2024-01-06T07:14:15;27.45;;;13.05;;
66751;SDS011;53663;42.676;23.238;2024-01-06T07:16:41;41.00;;;19.00;;
66751;SDS011;53663;42.676;23.238;2024-01-06T07:19:07;29.58;;;14.07;;
66751;SDS011;53663;42.676;23.238;2024-01-06T07:21:32;32.00;;;17.02;;
66751;SDS011;53663;42.676;23.238;2024-01-06T07:23:58;26.85;;;14.82;;
66751;SDS011;53663;42.676;23.238;2024-01-06T07:26:26;24.23;;;12.05;;
66751;SDS011;53663;42.676;23.238;2024-01-06T07:28:52;27.05;;;13.85;;
66751;SDS011;53663;42.676;23.238;2024-01-06T07:31:17;21.25;;;11.00;;
66751;SDS011;53663;42.676;23.238;2024-01-06T07:33:43;23.20;;;10.68;;
66751;SDS011;53663;42.676;23.238;2024-01-06T07:36:08;21.88;;;10.90;;
66751;SDS011;53663;42.676;23.238;2024-01-06T07:38:34;21.05;;;9.93;;
66751;SDS011;53663;42.676;23.238;2024-01-06T07:40:59;21.73;;;9.63;;
66751;SDS011;53663;42.676;23.238;2024-01-06T07:43:25;15.70;;;8.65;;
66751;SDS011;53663;42.676;23.238;2024-01-06T07:45:51;16.58;;;8.82;;
66751;SDS011;53663;42.676;23.238;2024-01-06T07:48:17;17.65;;;8.20;;
66751;SDS011;53663;42.676;23.238;2024-01-06T07:50:42;19.30;;;7.97;;
66751;SDS011;53663;42.676;23.238;2024-01-06T07:53:08;28.38;;;14.48;;
66751;SDS011;53663;42.676;23.238;2024-01-06T07:55:34;32.72;;;12.88;;
66751;SDS011;53663;42.676;23.238;2024-01-06T07:57:59;21.92;;;10.35;;
66751;SDS011;53663;42.676;23.238;2024-01-06T08:00:25;24.60;;;11.88;;
66751;SDS011;53663;42.676;23.238;2024-01-06T08:02:50;31.58;;;15.23;;
66751;SDS011;53663;42.676;23.238;2024-01-06T08:05:16;14.77;;;9.00;;
66751;SDS011;53663;42.676;23.238;2024-01-06T08:07:41;13.73;;;7.72;;
66751;SDS011;53663;42.676;23.238;2024-01-06T08:10:07;10.57;;;5.47;;
66751;SDS011;53663;42.676;23.238;2024-01-06T08:12:34;12.23;;;6.70;;
66751;SDS011;53663;42.676;23.238;2024-01-06T08:14:59;15.30;;;6.43;;
66751;SDS011;53663;42.676;23.238;2024-01-06T08:17:25;11.43;;;5.68;;
66751;SDS011;53663;42.676;23.238;2024-01-06T08:19:50;13.52;;;7.45;;
66751;SDS011;53663;42.676;23.238;2024-01-06T08:22:16;36.42;;;15.80;;
66751;SDS011;53663;42.676;23.238;2024-01-06T08:24:41;33.08;;;14.85;;
66751;SDS011;53663;42.676;23.238;2024-01-06T08:27:07;60.15;;;24.83;;
66751;SDS011;53663;42.676;23.238;2024-01-06T08:29:33;28.63;;;13.68;;
66751;SDS011;53663;42.676;23.238;2024-01-06T08:31:58;27.30;;;11.23;;
66751;SDS011;53663;42.676;23.238;2024-01-06T08:34:24;56.60;;;23.17;;
66751;SDS011;53663;42.676;23.238;2024-01-06T08:36:49;59.28;;;22.85;;
66751;SDS011;53663;42.676;23.238;2024-01-06T08:39:16;175.50;;;69.65;;
66751;SDS011;53663;42.676;23.238;2024-01-06T08:41:41;69.15;;;31.02;;
66751;SDS011;53663;42.676;23.238;2024-01-06T08:44:07;62.15;;;28.52;;
66751;SDS011;53663;42.676;23.238;2024-01-06T08:46:32;42.08;;;21.30;;
66751;SDS011;53663;42.676;23.238;2024-01-06T08:48:58;20.70;;;11.27;;
66751;SDS011;53663;42.676;23.238;2024-01-06T08:51:25;18.15;;;8.95;;
66751;SDS011;53663;42.676;23.238;2024-01-06T08:53:51;15.35;;;8.52;;
66751;SDS011;53663;42.676;23.238;2024-01-06T08:56:17;16.50;;;7.90;;
66751;SDS011;53663;42.676;23.238;2024-01-06T08:58:43;14.55;;;7.88;;
66751;SDS011;53663;42.676;23.238;2024-01-06T09:01:09;26.85;;;7.88;;
66751;SDS011;53663;42.676;23.238;2024-01-06T09:03:34;17.23;;;8.80;;
66751;SDS011;53663;42.676;23.238;2024-01-06T09:06:00;27.38;;;10.32;;
66751;SDS011;53663;42.676;23.238;2024-01-06T09:08:26;22.45;;;11.48;;
66751;SDS011;53663;42.676;23.238;2024-01-06T09:10:51;22.45;;;11.32;;
66751;SDS011;53663;42.676;23.238;2024-01-06T09:13:20;22.45;;;13.35;;
66751;SDS011;53663;42.676;23.238;2024-01-06T09:15:47;16.35;;;8.63;;
66751;SDS011;53663;42.676;23.238;2024-01-06T09:18:12;19.55;;;10.40;;
66751;SDS011;53663;42.676;23.238;2024-01-06T09:20:38;29.20;;;11.35;;
66751;SDS011;53663;42.676;23.238;2024-01-06T09:23:04;28.02;;;10.63;;
66751;SDS011;53663;42.676;23.238;2024-01-06T09:25:29;30.10;;;10.70;;
66751;SDS011;53663;42.676;23.238;2024-01-06T09:27:55;21.85;;;11.13;;
66751;SDS011;53663;42.676;23.238;2024-01-06T09:30:20;24.20;;;11.68;;
66751;SDS011;53663;42.676;23.238;2024-01-06T09:32:46;20.08;;;10.63;;
66751;SDS011;53663;42.676;23.238;2024-01-06T09:35:12;22.55;;;11.05;;
66751;SDS011;53663;42.676;23.238;2024-01-06T09:37:37;11.73;;;4.95;;
66751;SDS011;53663;42.676;23.238;2024-01-06T09:40:03;21.23;;;7.20;;
66751;SDS011;53663;42.676;23.238;2024-01-06T09:42:29;14.07;;;7.80;;
66751;SDS011;53663;42.676;23.238;2024-01-06T09:44:54;14.52;;;6.97;;
66751;SDS011;53663;42.676;23.238;2024-01-06T09:47:21;18.17;;;7.78;;
66751;SDS011;53663;42.676;23.238;2024-01-06T09:49:50;20.50;;;7.47;;
66751;SDS011;53663;42.676;23.238;2024-01-06T09:52:21;17.90;;;7.65;;
66751;SDS011;53663;42.676;23.238;2024-01-06T09:54:51;22.50;;;9.35;;
66751;SDS011;53663;42.676;23.238;2024-01-06T09:57:18;26.63;;;9.35;;
66751;SDS011;53663;42.676;23.238;2024-01-06T09:59:45;37.05;;;11.27;;
66751;SDS011;53663;42.676;23.238;2024-01-06T10:02:12;28.52;;;11.25;;
66751;SDS011;53663;42.676;23.238;2024-01-06T10:04:40;26.05;;;11.25;;
66751;SDS011;53663;42.676;23.238;2024-01-06T10:07:05;25.70;;;12.52;;
66751;SDS011;53663;42.676;23.238;2024-01-06T10:09:31;31.38;;;12.40;;
66751;SDS011;53663;42.676;23.238;2024-01-06T10:11:57;45.03;;;13.68;;
66751;SDS011;53663;42.676;23.238;2024-01-06T10:14:24;30.00;;;11.90;;
66751;SDS011;53663;42.676;23.238;2024-01-06T10:16:53;36.50;;;13.30;;
66751;SDS011;53663;42.676;23.238;2024-01-06T10:19:19;36.60;;;15.65;;
66751;SDS011;53663;42.676;23.238;2024-01-06T10:21:44;36.75;;;13.82;;
66751;SDS011;53663;42.676;23.238;2024-01-06T10:24:10;32.58;;;12.50;;
66751;SDS011;53663;42.676;23.238;2024-01-06T10:26:36;33.85;;;11.45;;
66751;SDS011;53663;42.676;23.238;2024-01-06T10:29:02;28.63;;;12.80;;
66751;SDS011;53663;42.676;23.238;2024-01-06T10:31:29;30.70;;;13.90;;
66751;SDS011;53663;42.676;23.238;2024-01-06T10:33:55;30.55;;;13.23;;
66751;SDS011;53663;42.676;23.238;2024-01-06T10:36:21;37.72;;;13.40;;
66751;SDS011;53663;42.676;23.238;2024-01-06T10:38:49;32.47;;;13.88;;
66751;SDS011;53663;42.676;23.238;2024-01-06T10:41:15;34.17;;;14.45;;
66751;SDS011;53663;42.676;23.238;2024-01-06T10:43:42;41.45;;;15.82;;
66751;SDS011;53663;42.676;23.238;2024-01-06T10:46:09;35.45;;;15.75;;
66751;SDS011;53663;42.676;23.238;2024-01-06T10:48:39;40.58;;;17.30;;
66751;SDS011;53663;42.676;23.238;2024-01-06T10:51:08;40.17;;;16.48;;
66751;SDS011;53663;42.676;23.238;2024-01-06T10:53:35;36.60;;;17.70;;
66751;SDS011;53663;42.676;23.238;2024-01-06T10:56:03;52.75;;;19.20;;
66751;SDS011;53663;42.676;23.238;2024-01-06T10:58:29;40.03;;;17.42;;
66751;SDS011;53663;42.676;23.238;2024-01-06T11:00:57;47.50;;;18.20;;
66751;SDS011;53663;42.676;23.238;2024-01-06T11:03:23;41.03;;;15.95;;
66751;SDS011;53663;42.676;23.238;2024-01-06T11:05:49;41.25;;;16.40;;
66751;SDS011;53663;42.676;23.238;2024-01-06T11:08:18;45.30;;;17.38;;
66751;SDS011;53663;42.676;23.238;2024-01-06T11:10:44;37.45;;;13.85;;
66751;SDS011;53663;42.676;23.238;2024-01-06T11:15:44;47.05;;;16.27;;
66751;SDS011;53663;42.676;23.238;2024-01-06T11:18:34;45.88;;;16.52;;
66751;SDS011;53663;42.676;23.238;2024-01-06T11:21:23;40.00;;;14.93;;
66751;SDS011;53663;42.676;23.238;2024-01-06T11:26:55;43.15;;;14.23;;
66751;SDS011;53663;42.676;23.238;2024-01-06T11:29:22;34.53;;;13.90;;
66751;SDS011;53663;42.676;23.238;2024-01-06T11:34:52;25.15;;;11.55;;
66751;SDS011;53663;42.676;23.238;2024-01-06T11:37:34;25.20;;;11.60;;
66751;SDS011;53663;42.676;23.238;2024-01-06T11:40:03;21.15;;;11.82;;
66751;SDS011;53663;42.676;23.238;2024-01-06T11:42:33;38.75;;;12.95;;
66751;SDS011;53663;42.676;23.238;2024-01-06T11:45:03;27.13;;;10.93;;
66751;SDS011;53663;42.676;23.238;2024-01-06T11:47:32;22.27;;;10.13;;
66751;SDS011;53663;42.676;23.238;2024-01-06T11:49:59;23.65;;;11.25;;
66751;SDS011;53663;42.676;23.238;2024-01-06T11:52:26;21.48;;;11.13;;
66751;SDS011;53663;42.676;23.238;2024-01-06T11:54:54;21.33;;;10.02;;
66751;SDS011;53663;42.676;23.238;2024-01-06T11:57:20;21.80;;;9.85;;
66751;SDS011;53663;42.676;23.238;2024-01-06T11:59:46;18.70;;;9.35;;
66751;SDS011;53663;42.676;23.238;2024-01-06T12:02:12;15.95;;;8.88;;
66751;SDS011;53663;42.676;23.238;2024-01-06T12:04:38;31.20;;;11.98;;
66751;SDS011;53663;42.676;23.238;2024-01-06T12:07:08;20.13;;;10.45;;
66751;SDS011;53663;42.676;23.238;2024-01-06T12:09:34;26.13;;;11.45;;
66751;SDS011;53663;42.676;23.238;2024-01-06T12:12:04;22.00;;;10.15;;
66751;SDS011;53663;42.676;23.238;2024-01-06T12:14:34;24.08;;;9.65;;
66751;SDS011;53663;42.676;23.238;2024-01-06T12:17:00;15.95;;;7.60;;
66751;SDS011;53663;42.676;23.238;2024-01-06T12:19:31;13.18;;;7.18;;
66751;SDS011;53663;42.676;23.238;2024-01-06T12:21:57;13.52;;;6.15;;
66751;SDS011;53663;42.676;23.238;2024-01-06T12:24:23;22.63;;;8.73;;
66751;SDS011;53663;42.676;23.238;2024-01-06T12:26:48;12.43;;;7.13;;
66751;SDS011;53663;42.676;23.238;2024-01-06T12:29:14;10.38;;;6.13;;
66751;SDS011;53663;42.676;23.238;2024-01-06T12:31:41;14.05;;;5.43;;
66751;SDS011;53663;42.676;23.238;2024-01-06T12:34:09;11.00;;;6.50;;
66751;SDS011;53663;42.676;23.238;2024-01-06T12:36:38;19.95;;;9.93;;
66751;SDS011;53663;42.676;23.238;2024-01-06T12:39:06;34.47;;;12.45;;
66751;SDS011;53663;42.676;23.238;2024-01-06T12:41:38;19.17;;;10.10;;
66751;SDS011;53663;42.676;23.238;2024-01-06T12:44:07;18.67;;;7.43;;
66751;SDS011;53663;42.676;23.238;2024-01-06T12:46:33;17.13;;;7.88;;
66751;SDS011;53663;42.676;23.238;2024-01-06T12:48:59;15.68;;;7.55;;
66751;SDS011;53663;42.676;23.238;2024-01-06T12:51:25;12.80;;;7.38;;
66751;SDS011;53663;42.676;23.238;2024-01-06T12:53:50;24.35;;;8.65;;
66751;SDS011;53663;42.676;23.238;2024-01-06T12:56:16;16.10;;;7.20;;
66751;SDS011;53663;42.676;23.238;2024-01-06T12:58:42;19.38;;;8.18;;
66751;SDS011;53663;42.676;23.238;2024-01-06T13:01:09;17.45;;;6.88;;
66751;SDS011;53663;42.676;23.238;2024-01-06T13:03:35;14.48;;;7.38;;
66751;SDS011;53663;42.676;23.238;2024-01-06T13:06:00;12.07;;;5.72;;
66751;SDS011;53663;42.676;23.238;2024-01-06T13:08:26;19.65;;;7.10;;
66751;SDS011;53663;42.676;23.238;2024-01-06T13:10:53;12.98;;;6.20;;
66751;SDS011;53663;42.676;23.238;2024-01-06T13:13:21;23.05;;;10.18;;
66751;SDS011;53663;42.676;23.238;2024-01-06T13:15:47;16.80;;;6.80;;
66751;SDS011;53663;42.676;23.238;2024-01-06T13:18:13;11.75;;;6.70;;
66751;SDS011;53663;42.676;23.238;2024-01-06T13:20:39;19.63;;;8.82;;
66751;SDS011;53663;42.676;23.238;2024-01-06T13:23:07;15.48;;;7.25;;
66751;SDS011;53663;42.676;23.238;2024-01-06T13:25:34;16.00;;;5.82;;
66751;SDS011;53663;42.676;23.238;2024-01-06T13:28:00;12.35;;;6.30;;
66751;SDS011;53663;42.676;23.238;2024-01-06T13:30:26;15.60;;;6.75;;
66751;SDS011;53663;42.676;23.238;2024-01-06T13:32:52;12.32;;;6.40;;
66751;SDS011;53663;42.676;23.238;2024-01-06T13:35:22;14.98;;;6.32;;
66751;SDS011;53663;42.676;23.238;2024-01-06T13:37:53;16.02;;;6.88;;
66751;SDS011;53663;42.676;23.238;2024-01-06T13:40:21;18.08;;;6.95;;
66751;SDS011;53663;42.676;23.238;2024-01-06T13:42:47;13.68;;;6.43;;
66751;SDS011;53663;42.676;23.238;2024-01-06T13:45:16;13.60;;;5.78;;
66751;SDS011;53663;42.676;23.238;2024-01-06T13:47:42;22.83;;;6.07;;
66751;SDS011;53663;42.676;23.238;2024-01-06T13:50:10;13.35;;;6.70;;
66751;SDS011;53663;42.676;23.238;2024-01-06T13:52:37;13.48;;;6.60;;
66751;SDS011;53663;42.676;23.238;2024-01-06T13:55:03;18.42;;;6.30;;
66751;SDS011;53663;42.676;23.238;2024-01-06T13:57:29;13.52;;;7.03;;
66751;SDS011;53663;42.676;23.238;2024-01-06T13:59:55;11.38;;;6.05;;
66751;SDS011;53663;42.676;23.238;2024-01-06T14:02:22;18.42;;;6.80;;
66751;SDS011;53663;42.676;23.238;2024-01-06T14:04:49;13.52;;;6.00;;
66751;SDS011;53663;42.676;23.238;2024-01-06T14:07:14;10.98;;;5.63;;
66751;SDS011;53663;42.676;23.238;2024-01-06T14:09:43;12.63;;;6.05;;
66751;SDS011;53663;42.676;23.238;2024-01-06T14:12:09;22.90;;;8.82;;
66751;SDS011;53663;42.676;23.238;2024-01-06T14:14:35;25.92;;;7.60;;
66751;SDS011;53663;42.676;23.238;2024-01-06T14:17:00;22.58;;;7.28;;
66751;SDS011;53663;42.676;23.238;2024-01-06T14:19:26;31.42;;;8.63;;
66751;SDS011;53663;42.676;23.238;2024-01-06T14:21:51;21.20;;;7.93;;